sensor_id;sensor_type;location;lat;lon;timestamp;pressure;altitude;pressure_sealevel;temperature;humidity
32873;BME280;19224;52.462;16.898;2023-03-11T00:02:04;97399.38;;;8.43;100.00
32873;BME280;19224;52.462;16.898;2023-03-11T00:04:35;97391.84;;;8.43;100.00
32873;BME280;19224;52.462;16.898;2023-03-11T00:07:08;97393.66;;;8.42;100.00
32873;BME280;19224;52.462;16.898;2023-03-11T00:09:39;97387.30;;;8.43;100.00
32873;BME280;19224;52.462;16.898;2023-03-11T00:12:11;97386.95;;;8.42;100.00
32873;BME280;19224;52.462;16.898;2023-03-11T00:14:41;97388.78;;;8.47;100.00
32873;BME280;19224;52.462;16.898;2023-03-11T00:17:11;97383.77;;;8.48;100.00
32873;BME280;19224;52.462;16.898;2023-03-11T00:19:42;97383.16;;;8.50;100.00
32873;BME280;19224;52.462;16.898;2023-03-11T00:22:12;97378.05;;;8.47;100.00
32873;BME280;19224;52.462;16.898;2023-03-11T00:24:51;97376.09;;;8.49;100.00
32873;BME280;19224;52.462;16.898;2023-03-11T00:27:23;97373.41;;;8.49;100.00
32873;BME280;19224;52.462;16.898;2023-03-11T00:29:54;97380.11;;;8.49;100.00
32873;BME280;19224;52.462;16.898;2023-03-11T00:32:26;97379.39;;;8.47;100.00
32873;BME280;19224;52.462;16.898;2023-03-11T00:34:56;97380.83;;;8.51;100.00
32873;BME280;19224;52.462;16.898;2023-03-11T00:37:30;97381.19;;;8.52;100.00
32873;BME280;19224;52.462;16.898;2023-03-11T00:39:59;97378.63;;;8.56;100.00
32873;BME280;19224;52.462;16.898;2023-03-11T00:42:30;97373.86;;;8.54;100.00
32873;BME280;19224;52.462;16.898;2023-03-11T00:45:02;97377.30;;;8.56;100.00
32873;BME280;19224;52.462;16.898;2023-03-11T00:47:34;97370.61;;;8.51;100.00
32873;BME280;19224;52.462;16.898;2023-03-11T00:50:05;97368.05;;;8.49;100.00
32873;BME280;19224;52.462;16.898;2023-03-11T00:52:41;97373.67;;;8.46;100.00
32873;BME280;19224;52.462;16.898;2023-03-11T00:55:16;97362.80;;;8.48;100.00
32873;BME280;19224;52.462;16.898;2023-03-11T00:57:49;97354.19;;;8.44;100.00
32873;BME280;19224;52.462;16.898;2023-03-11T01:00:26;97360.04;;;8.38;100.00
32873;BME280;19224;52.462;16.898;2023-03-11T01:03:01;97354.31;;;8.37;100.00
32873;BME280;19224;52.462;16.898;2023-03-11T01:05:38;97359.56;;;8.39;100.00
32873;BME280;19224;52.462;16.898;2023-03-11T01:08:10;97356.73;;;8.40;100.00
32873;BME280;19224;52.462;16.898;2023-03-11T01:10:43;97350.78;;;8.31;100.00
32873;BME280;19224;52.462;16.898;2023-03-11T01:13:13;97346.55;;;8.29;100.00
32873;BME280;19224;52.462;16.898;2023-03-11T01:15:44;97348.48;;;8.27;100.00
32873;BME280;19224;52.462;16.898;2023-03-11T01:18:14;97350.42;;;8.30;100.00
32873;BME280;19224;52.462;16.898;2023-03-11T01:20:45;97349.34;;;8.27;100.00
32873;BME280;19224;52.462;16.898;2023-03-11T01:23:20;97349.70;;;8.28;100.00
32873;BME280;19224;52.462;16.898;2023-03-11T01:26:01;97343.98;;;8.27;100.00
32873;BME280;19224;52.462;16.898;2023-03-11T01:28:33;97345.69;;;8.28;100.00
32873;BME280;19224;52.462;16.898;2023-03-11T01:31:00;97347.29;;;8.25;100.00
32873;BME280;19224;52.462;16.898;2023-03-11T01:33:30;97345.59;;;8.24;100.00
32873;BME280;19224;52.462;16.898;2023-03-11T01:36:08;97344.34;;;8.17;100.00
32873;BME280;19224;52.462;16.898;2023-03-11T01:38:39;97349.61;;;8.24;100.00
32873;BME280;19224;52.462;16.898;2023-03-11T01:41:11;97341.21;;;8.23;100.00
32873;BME280;19224;52.462;16.898;2023-03-11T01:43:49;97341.08;;;8.19;100.00
32873;BME280;19224;52.462;16.898;2023-03-11T01:46:35;97341.08;;;8.19;100.00
32873;BME280;19224;52.462;16.898;2023-03-11T01:49:03;97347.77;;;8.14;100.00
32873;BME280;19224;52.462;16.898;2023-03-11T01:51:42;97344.61;;;8.14;100.00
32873;BME280;19224;52.462;16.898;2023-03-11T01:56:54;97339.00;;;8.12;100.00
32873;BME280;19224;52.462;16.898;2023-03-11T01:59:29;97337.66;;;8.12;100.00
32873;BME280;19224;52.462;16.898;2023-03-11T02:02:25;97337.67;;;8.06;100.00
32873;BME280;19224;52.462;16.898;2023-03-11T02:04:58;97340.72;;;8.07;100.00
32873;BME280;19224;52.462;16.898;2023-03-11T02:07:33;97335.09;;;8.10;100.00
32873;BME280;19224;52.462;16.898;2023-03-11T02:10:10;97334.88;;;8.08;100.00
32873;BME280;19224;52.462;16.898;2023-03-11T02:12:43;97325.98;;;8.07;100.00
32873;BME280;19224;52.462;16.898;2023-03-11T02:15:20;97333.30;;;8.05;100.00
32873;BME280;19224;52.462;16.898;2023-03-11T02:17:51;97334.28;;;8.04;100.00
32873;BME280;19224;52.462;16.898;2023-03-11T02:20:51;97336.70;;;8.02;100.00
32873;BME280;19224;52.462;16.898;2023-03-11T02:23:24;97333.91;;;8.03;100.00
32873;BME280;19224;52.462;16.898;2023-03-11T02:26:22;97334.75;;;8.04;100.00
32873;BME280;19224;52.462;16.898;2023-03-11T02:28:51;97334.73;;;8.09;100.00
32873;BME280;19224;52.462;16.898;2023-03-11T02:31:23;97339.11;;;8.10;100.00
32873;BME280;19224;52.462;16.898;2023-03-11T02:34:00;97341.80;;;8.10;100.00
32873;BME280;19224;52.462;16.898;2023-03-11T02:36:41;97343.30;;;8.03;100.00
32873;BME280;19224;52.462;16.898;2023-03-11T02:39:08;97341.64;;;7.69;100.00
32873;BME280;19224;52.462;16.898;2023-03-11T02:41:44;97345.16;;;7.53;100.00
32873;BME280;19224;52.462;16.898;2023-03-11T02:44:19;97350.16;;;7.41;100.00
32873;BME280;19224;52.462;16.898;2023-03-11T02:46:54;97354.88;;;7.16;100.00
32873;BME280;19224;52.462;16.898;2023-03-11T02:49:30;97360.67;;;6.88;100.00
32873;BME280;19224;52.462;16.898;2023-03-11T02:52:02;97367.78;;;6.71;100.00
32873;BME280;19224;52.462;16.898;2023-03-11T02:54:33;97376.48;;;6.51;100.00
32873;BME280;19224;52.462;16.898;2023-03-11T02:57:11;97384.73;;;6.07;100.00
32873;BME280;19224;52.462;16.898;2023-03-11T02:59:38;97378.89;;;6.02;100.00
32873;BME280;19224;52.462;16.898;2023-03-11T03:02:18;97397.47;;;5.60;100.00
32873;BME280;19224;52.462;16.898;2023-03-11T03:04:54;97386.96;;;5.34;100.00
32873;BME280;19224;52.462;16.898;2023-03-11T03:07:24;97395.91;;;5.08;100.00
32873;BME280;19224;52.462;16.898;2023-03-11T03:09:59;97396.61;;;5.17;100.00
32873;BME280;19224;52.462;16.898;2023-03-11T03:12:30;97406.09;;;4.96;100.00
32873;BME280;19224;52.462;16.898;2023-03-11T03:15:01;97409.87;;;4.86;100.00
32873;BME280;19224;52.462;16.898;2023-03-11T03:17:38;97410.18;;;4.82;100.00
32873;BME280;19224;52.462;16.898;2023-03-11T03:20:08;97417.45;;;4.73;100.00
32873;BME280;19224;52.462;16.898;2023-03-11T03:22:41;97421.83;;;4.74;100.00
32873;BME280;19224;52.462;16.898;2023-03-11T03:25:14;97426.06;;;4.64;100.00
32873;BME280;19224;52.462;16.898;2023-03-11T03:27:47;97435.23;;;4.60;100.00
32873;BME280;19224;52.462;16.898;2023-03-11T03:30:20;97439.07;;;4.56;100.00
32873;BME280;19224;52.462;16.898;2023-03-11T03:32:52;97446.13;;;4.50;100.00
32873;BME280;19224;52.462;16.898;2023-03-11T03:35:23;97442.56;;;4.37;100.00
32873;BME280;19224;52.462;16.898;2023-03-11T03:37:53;97451.81;;;4.32;100.00
32873;BME280;19224;52.462;16.898;2023-03-11T03:40:25;97448.20;;;4.26;100.00
32873;BME280;19224;52.462;16.898;2023-03-11T03:42:57;97460.48;;;4.21;100.00
32873;BME280;19224;52.462;16.898;2023-03-11T03:45:28;97464.72;;;4.04;100.00
32873;BME280;19224;52.462;16.898;2023-03-11T03:48:04;97476.03;;;3.94;100.00
32873;BME280;19224;52.462;16.898;2023-03-11T03:50:30;97487.86;;;3.76;100.00
32873;BME280;19224;52.462;16.898;2023-03-11T03:53:00;97484.25;;;3.77;100.00
32873;BME280;19224;52.462;16.898;2023-03-11T03:55:31;97492.87;;;3.66;100.00
32873;BME280;19224;52.462;16.898;2023-03-11T03:58:01;97499.94;;;3.67;100.00
32873;BME280;19224;52.462;16.898;2023-03-11T04:00:38;97516.63;;;3.55;100.00
32873;BME280;19224;52.462;16.898;2023-03-11T04:03:05;97509.06;;;3.56;100.00
32873;BME280;19224;52.462;16.898;2023-03-11T04:05:35;97523.78;;;3.62;100.00
32873;BME280;19224;52.462;16.898;2023-03-11T04:08:07;97529.75;;;3.51;100.00
32873;BME280;19224;52.462;16.898;2023-03-11T04:10:38;97532.03;;;3.50;100.00
32873;BME280;19224;52.462;16.898;2023-03-11T04:13:08;97536.73;;;3.31;100.00
32873;BME280;19224;52.462;16.898;2023-03-11T04:15:40;97534.84;;;3.26;100.00
32873;BME280;19224;52.462;16.898;2023-03-11T04:18:14;97543.22;;;3.05;100.00
32873;BME280;19224;52.462;16.898;2023-03-11T04:20:44;97545.27;;;2.93;100.00
32873;BME280;19224;52.462;16.898;2023-03-11T04:23:15;97549.09;;;2.73;100.00
32873;BME280;19224;52.462;16.898;2023-03-11T04:25:45;97551.22;;;2.82;100.00
32873;BME280;19224;52.462;16.898;2023-03-11T04:28:17;97553.23;;;2.86;100.00
32873;BME280;19224;52.462;16.898;2023-03-11T04:30:48;97562.57;;;2.77;100.00
32873;BME280;19224;52.462;16.898;2023-03-11T04:33:19;97567.11;;;2.68;100.00
32873;BME280;19224;52.462;16.898;2023-03-11T04:35:54;97577.00;;;2.58;100.00
32873;BME280;19224;52.462;16.898;2023-03-11T04:38:26;97581.11;;;2.63;100.00
32873;BME280;19224;52.462;16.898;2023-03-11T04:41:04;97583.05;;;2.53;100.00
32873;BME280;19224;52.462;16.898;2023-03-11T04:43:40;97585.47;;;2.49;100.00
32873;BME280;19224;52.462;16.898;2023-03-11T04:46:16;97600.50;;;2.50;100.00
32873;BME280;19224;52.462;16.898;2023-03-11T04:48:44;97603.66;;;2.41;100.00
32873;BME280;19224;52.462;16.898;2023-03-11T04:51:15;97612.25;;;2.37;100.00
32873;BME280;19224;52.462;16.898;2023-03-11T04:53:48;97618.16;;;2.42;100.00
32873;BME280;19224;52.462;16.898;2023-03-11T04:56:19;97625.35;;;2.40;100.00
32873;BME280;19224;52.462;16.898;2023-03-11T04:58:49;97631.55;;;2.32;100.00
32873;BME280;19224;52.462;16.898;2023-03-11T05:01:20;97636.65;;;2.28;100.00
32873;BME280;19224;52.462;16.898;2023-03-11T05:03:51;97647.76;;;2.20;100.00
32873;BME280;19224;52.462;16.898;2023-03-11T05:06:26;97652.08;;;2.05;100.00
32873;BME280;19224;52.462;16.898;2023-03-11T05:08:57;97644.23;;;2.04;100.00
32873;BME280;19224;52.462;16.898;2023-03-11T05:11:31;97662.97;;;2.01;100.00
32873;BME280;19224;52.462;16.898;2023-03-11T05:14:01;97660.48;;;1.89;100.00
32873;BME280;19224;52.462;16.898;2023-03-11T05:16:32;97671.41;;;1.92;100.00
32873;BME280;19224;52.462;16.898;2023-03-11T05:19:02;97675.31;;;1.85;100.00
32873;BME280;19224;52.462;16.898;2023-03-11T05:21:39;97694.44;;;1.83;100.00
32873;BME280;19224;52.462;16.898;2023-03-11T05:24:12;97692.64;;;1.75;100.00
32873;BME280;19224;52.462;16.898;2023-03-11T05:26:42;97705.03;;;1.66;100.00
32873;BME280;19224;52.462;16.898;2023-03-11T05:29:16;97711.14;;;1.68;100.00
32873;BME280;19224;52.462;16.898;2023-03-11T05:31:48;97718.23;;;1.67;100.00
32873;BME280;19224;52.462;16.898;2023-03-11T05:34:19;97729.00;;;1.64;100.00
32873;BME280;19224;52.462;16.898;2023-03-11T05:36:51;97736.41;;;1.66;100.00
32873;BME280;19224;52.462;16.898;2023-03-11T05:39:24;97742.42;;;1.70;100.00
32873;BME280;19224;52.462;16.898;2023-03-11T05:41:58;97747.63;;;1.63;100.00
32873;BME280;19224;52.462;16.898;2023-03-11T05:44:33;97754.09;;;1.66;100.00
32873;BME280;19224;52.462;16.898;2023-03-11T05:46:59;97770.01;;;1.66;100.00
32873;BME280;19224;52.462;16.898;2023-03-11T05:49:30;97767.91;;;1.72;100.00
32873;BME280;19224;52.462;16.898;2023-03-11T05:52:03;97773.79;;;1.79;100.00
32873;BME280;19224;52.462;16.898;2023-03-11T05:54:36;97789.13;;;1.72;100.00
32873;BME280;19224;52.462;16.898;2023-03-11T05:57:10;97794.43;;;1.64;100.00
32873;BME280;19224;52.462;16.898;2023-03-11T05:59:47;97809.17;;;1.69;100.00
32873;BME280;19224;52.462;16.898;2023-03-11T06:02:18;97821.11;;;1.61;100.00
32873;BME280;19224;52.462;16.898;2023-03-11T06:04:49;97833.97;;;1.60;100.00
32873;BME280;19224;52.462;16.898;2023-03-11T06:07:26;97822.98;;;1.67;100.00
32873;BME280;19224;52.462;16.898;2023-03-11T06:09:57;97834.09;;;1.75;100.00
32873;BME280;19224;52.462;16.898;2023-03-11T06:12:34;97847.78;;;1.58;100.00
32873;BME280;19224;52.462;16.898;2023-03-11T06:15:10;97854.47;;;1.56;100.00
32873;BME280;19224;52.462;16.898;2023-03-11T06:17:40;97863.91;;;1.53;100.00
32873;BME280;19224;52.462;16.898;2023-03-11T06:20:12;97872.08;;;1.49;100.00
32873;BME280;19224;52.462;16.898;2023-03-11T06:22:43;97900.64;;;1.52;100.00
32873;BME280;19224;52.462;16.898;2023-03-11T06:25:13;97890.67;;;1.39;100.00
32873;BME280;19224;52.462;16.898;2023-03-11T06:27:47;97887.05;;;1.50;100.00
32873;BME280;19224;52.462;16.898;2023-03-11T06:30:17;97904.44;;;1.47;100.00
32873;BME280;19224;52.462;16.898;2023-03-11T06:32:48;97923.27;;;1.41;100.00
32873;BME280;19224;52.462;16.898;2023-03-11T06:35:24;97949.57;;;1.45;100.00
32873;BME280;19224;52.462;16.898;2023-03-11T06:37:53;97944.84;;;1.33;100.00
32873;BME280;19224;52.462;16.898;2023-03-11T06:40:24;97952.73;;;1.35;100.00
32873;BME280;19224;52.462;16.898;2023-03-11T06:42:54;97965.17;;;1.33;100.00
32873;BME280;19224;52.462;16.898;2023-03-11T06:45:27;97987.79;;;1.31;100.00
32873;BME280;19224;52.462;16.898;2023-03-11T06:48:05;97990.78;;;1.34;100.00
32873;BME280;19224;52.462;16.898;2023-03-11T06:50:38;98027.06;;;1.32;100.00
32873;BME280;19224;52.462;16.898;2023-03-11T06:53:10;98022.59;;;1.34;100.00
32873;BME280;19224;52.462;16.898;2023-03-11T06:55:40;98030.54;;;1.34;100.00
32873;BME280;19224;52.462;16.898;2023-03-11T06:58:11;98049.87;;;1.36;100.00
32873;BME280;19224;52.462;16.898;2023-03-11T07:00:41;98054.16;;;1.38;100.00
32873;BME280;19224;52.462;16.898;2023-03-11T07:03:12;98068.44;;;1.36;100.00
32873;BME280;19224;52.462;16.898;2023-03-11T07:05:42;98081.41;;;1.32;100.00
32873;BME280;19224;52.462;16.898;2023-03-11T07:08:13;98086.85;;;1.39;100.00
32873;BME280;19224;52.462;16.898;2023-03-11T07:10:43;98090.04;;;1.37;100.00
32873;BME280;19224;52.462;16.898;2023-03-11T07:13:17;98107.41;;;1.34;100.00
32873;BME280;19224;52.462;16.898;2023-03-11T07:15:48;98106.48;;;1.35;100.00
32873;BME280;19224;52.462;16.898;2023-03-11T07:18:20;98121.99;;;1.34;100.00
32873;BME280;19224;52.462;16.898;2023-03-11T07:20:52;98118.27;;;1.28;100.00
32873;BME280;19224;52.462;16.898;2023-03-11T07:23:24;98124.16;;;1.24;100.00
32873;BME280;19224;52.462;16.898;2023-03-11T07:25:54;98133.09;;;1.32;100.00
32873;BME280;19224;52.462;16.898;2023-03-11T07:28:27;98158.97;;;1.37;100.00
32873;BME280;19224;52.462;16.898;2023-03-11T07:33:36;98173.05;;;1.27;100.00
32873;BME280;19224;52.462;16.898;2023-03-11T07:36:16;98179.23;;;1.28;100.00
32873;BME280;19224;52.462;16.898;2023-03-11T07:39:00;98180.41;;;1.31;100.00
32873;BME280;19224;52.462;16.898;2023-03-11T07:41:21;98193.27;;;1.30;100.00
32873;BME280;19224;52.462;16.898;2023-03-11T07:43:56;98189.31;;;1.40;100.00
32873;BME280;19224;52.462;16.898;2023-03-11T07:46:30;98208.13;;;1.44;100.00
32873;BME280;19224;52.462;16.898;2023-03-11T07:49:01;98208.66;;;1.42;100.00
32873;BME280;19224;52.462;16.898;2023-03-11T07:51:37;98207.23;;;1.45;100.00
32873;BME280;19224;52.462;16.898;2023-03-11T07:54:11;98230.56;;;1.47;100.00
32873;BME280;19224;52.462;16.898;2023-03-11T07:56:42;98222.22;;;1.46;100.00
32873;BME280;19224;52.462;16.898;2023-03-11T07:59:12;98234.85;;;1.49;100.00
32873;BME280;19224;52.462;16.898;2023-03-11T08:01:43;98242.02;;;1.47;100.00
32873;BME280;19224;52.462;16.898;2023-03-11T08:04:15;98253.50;;;1.48;100.00
32873;BME280;19224;52.462;16.898;2023-03-11T08:06:47;98258.34;;;1.58;100.00
32873;BME280;19224;52.462;16.898;2023-03-11T08:09:22;98281.47;;;1.55;100.00
32873;BME280;19224;52.462;16.898;2023-03-11T08:12:00;98281.47;;;1.55;100.00
32873;BME280;19224;52.462;16.898;2023-03-11T08:14:27;98296.05;;;1.55;100.00
32873;BME280;19224;52.462;16.898;2023-03-11T08:17:00;98308.81;;;1.57;100.00
32873;BME280;19224;52.462;16.898;2023-03-11T08:19:35;98320.32;;;1.46;100.00
32873;BME280;19224;52.462;16.898;2023-03-11T08:22:05;98310.74;;;1.42;100.00
32873;BME280;19224;52.462;16.898;2023-03-11T08:24:35;98324.36;;;1.33;100.00
32873;BME280;19224;52.462;16.898;2023-03-11T08:27:06;98343.09;;;1.40;100.00
32873;BME280;19224;52.462;16.898;2023-03-11T08:29:40;98367.97;;;1.47;100.00
32873;BME280;19224;52.462;16.898;2023-03-11T08:32:10;98355.42;;;1.41;100.00
32873;BME280;19224;52.462;16.898;2023-03-11T08:34:41;98362.84;;;1.43;100.00
32873;BME280;19224;52.462;16.898;2023-03-11T08:37:12;98373.05;;;1.42;100.00
32873;BME280;19224;52.462;16.898;2023-03-11T08:39:42;98375.16;;;1.34;100.00
32873;BME280;19224;52.462;16.898;2023-03-11T08:42:16;98396.77;;;1.35;100.00
32873;BME280;19224;52.462;16.898;2023-03-11T08:44:56;98396.39;;;1.44;100.00
32873;BME280;19224;52.462;16.898;2023-03-11T08:47:36;98400.09;;;1.51;100.00
32873;BME280;19224;52.462;16.898;2023-03-11T08:50:15;98408.97;;;1.50;100.00
32873;BME280;19224;52.462;16.898;2023-03-11T08:52:45;98394.04;;;1.48;100.00
32873;BME280;19224;52.462;16.898;2023-03-11T08:55:17;98409.20;;;1.44;100.00
32873;BME280;19224;52.462;16.898;2023-03-11T08:57:50;98395.84;;;1.24;100.00
32873;BME280;19224;52.462;16.898;2023-03-11T09:00:21;98424.66;;;1.45;100.00
32873;BME280;19224;52.462;16.898;2023-03-11T09:02:52;98424.89;;;1.50;100.00
32873;BME280;19224;52.462;16.898;2023-03-11T09:05:22;98439.70;;;1.56;100.00
32873;BME280;19224;52.462;16.898;2023-03-11T09:07:54;98450.05;;;1.62;100.00
32873;BME280;19224;52.462;16.898;2023-03-11T09:10:29;98462.26;;;1.66;100.00
32873;BME280;19224;52.462;16.898;2023-03-11T09:13:00;98499.58;;;1.73;100.00
32873;BME280;19224;52.462;16.898;2023-03-11T09:15:30;98474.20;;;1.66;100.00
32873;BME280;19224;52.462;16.898;2023-03-11T09:18:01;98480.91;;;1.64;100.00
32873;BME280;19224;52.462;16.898;2023-03-11T09:20:38;98483.26;;;1.72;100.00
32873;BME280;19224;52.462;16.898;2023-03-11T09:23:12;98492.77;;;1.77;100.00
32873;BME280;19224;52.462;16.898;2023-03-11T09:25:43;98499.63;;;1.83;100.00
32873;BME280;19224;52.462;16.898;2023-03-11T09:28:14;98515.77;;;1.88;100.00
32873;BME280;19224;52.462;16.898;2023-03-11T09:30:54;98524.17;;;1.88;100.00
32873;BME280;19224;52.462;16.898;2023-03-11T09:33:29;98539.42;;;1.83;100.00
32873;BME280;19224;52.462;16.898;2023-03-11T09:36:01;98544.73;;;1.83;100.00
32873;BME280;19224;52.462;16.898;2023-03-11T09:38:33;98519.17;;;1.80;100.00
32873;BME280;19224;52.462;16.898;2023-03-11T09:41:32;98550.04;;;1.83;100.00
32873;BME280;19224;52.462;16.898;2023-03-11T09:44:29;98540.48;;;1.79;100.00
32873;BME280;19224;52.462;16.898;2023-03-11T09:53:33;98573.58;;;1.92;100.00
32873;BME280;19224;52.462;16.898;2023-03-11T09:56:12;98573.52;;;1.82;100.00
32873;BME280;19224;52.462;16.898;2023-03-11T09:58:51;98569.83;;;1.74;100.00
32873;BME280;19224;52.462;16.898;2023-03-11T10:01:38;98587.31;;;1.80;100.00
32873;BME280;19224;52.462;16.898;2023-03-11T10:04:15;98590.45;;;1.78;100.00
32873;BME280;19224;52.462;16.898;2023-03-11T10:06:49;98597.38;;;1.70;100.00
32873;BME280;19224;52.462;16.898;2023-03-11T10:09:53;98608.55;;;1.55;100.00
32873;BME280;19224;52.462;16.898;2023-03-11T10:21:45;98622.20;;;1.81;100.00
32873;BME280;19224;52.462;16.898;2023-03-11T10:27:20;98659.16;;;1.74;100.00
32873;BME280;19224;52.462;16.898;2023-03-11T10:35:22;98652.56;;;1.72;100.00
32873;BME280;19224;52.462;16.898;2023-03-11T10:38:04;98677.64;;;1.64;100.00
32873;BME280;19224;52.462;16.898;2023-03-11T10:40:43;98684.99;;;1.69;100.00
32873;BME280;19224;52.462;16.898;2023-03-11T10:43:18;98669.00;;;1.70;100.00
32873;BME280;19224;52.462;16.898;2023-03-11T10:45:49;98678.92;;;1.65;100.00
32873;BME280;19224;52.462;16.898;2023-03-11T10:48:23;98687.53;;;1.72;100.00
32873;BME280;19224;52.462;16.898;2023-03-11T10:51:16;98687.61;;;1.82;100.00
32873;BME280;19224;52.462;16.898;2023-03-11T10:53:55;98725.59;;;1.71;100.00
32873;BME280;19224;52.462;16.898;2023-03-11T10:56:33;98706.39;;;1.76;100.00
32873;BME280;19224;52.462;16.898;2023-03-11T11:02:16;98707.88;;;1.96;100.00
32873;BME280;19224;52.462;16.898;2023-03-11T11:04:40;98737.48;;;1.97;100.00
32873;BME280;19224;52.462;16.898;2023-03-11T11:07:35;98732.05;;;1.88;100.00
32873;BME280;19224;52.462;16.898;2023-03-11T11:10:21;98716.56;;;2.01;100.00
32873;BME280;19224;52.462;16.898;2023-03-11T11:13:16;98739.16;;;2.11;100.00
32873;BME280;19224;52.462;16.898;2023-03-11T11:16:15;98742.54;;;2.16;100.00
32873;BME280;19224;52.462;16.898;2023-03-11T11:18:49;98740.01;;;2.13;100.00
32873;BME280;19224;52.462;16.898;2023-03-11T11:21:41;98732.89;;;2.13;100.00
32873;BME280;19224;52.462;16.898;2023-03-11T11:24:25;98748.38;;;2.14;100.00
32873;BME280;19224;52.462;16.898;2023-03-11T11:27:11;98743.67;;;2.09;100.00
32873;BME280;19224;52.462;16.898;2023-03-11T11:29:37;98752.16;;;2.07;100.00
32873;BME280;19224;52.462;16.898;2023-03-11T11:32:23;98769.70;;;2.11;100.00
32873;BME280;19224;52.462;16.898;2023-03-11T11:35:03;98759.08;;;2.11;100.00
32873;BME280;19224;52.462;16.898;2023-03-11T11:37:49;98765.83;;;2.08;100.00
32873;BME280;19224;52.462;16.898;2023-03-11T11:40:27;98787.67;;;2.16;100.00
32873;BME280;19224;52.462;16.898;2023-03-11T11:43:11;98803.27;;;2.00;100.00
32873;BME280;19224;52.462;16.898;2023-03-11T11:45:56;98802.23;;;2.04;100.00
32873;BME280;19224;52.462;16.898;2023-03-11T11:49:01;98812.77;;;2.07;100.00
32873;BME280;19224;52.462;16.898;2023-03-11T11:51:43;98797.31;;;1.94;100.00
32873;BME280;19224;52.462;16.898;2023-03-11T11:57:38;98811.08;;;2.05;100.00
32873;BME280;19224;52.462;16.898;2023-03-11T12:00:27;98810.10;;;1.94;100.00
32873;BME280;19224;52.462;16.898;2023-03-11T12:03:27;98826.00;;;1.83;100.00
32873;BME280;19224;52.462;16.898;2023-03-11T12:12:07;98834.77;;;1.85;100.00
32873;BME280;19224;52.462;16.898;2023-03-11T12:17:20;98837.42;;;1.85;100.00
32873;BME280;19224;52.462;16.898;2023-03-11T12:19:59;98836.41;;;2.02;100.00
32873;BME280;19224;52.462;16.898;2023-03-11T12:25:43;98856.70;;;2.16;100.00
32873;BME280;19224;52.462;16.898;2023-03-11T12:28:30;98842.96;;;2.29;100.00
32873;BME280;19224;52.462;16.898;2023-03-11T12:31:07;98870.17;;;2.35;100.00
32873;BME280;19224;52.462;16.898;2023-03-11T12:33:51;98881.22;;;2.24;100.00
32873;BME280;19224;52.462;16.898;2023-03-11T12:36:37;98884.05;;;2.30;100.00
32873;BME280;19224;52.462;16.898;2023-03-11T12:39:27;98874.84;;;2.40;100.00
32873;BME280;19224;52.462;16.898;2023-03-11T12:42:20;98909.20;;;2.33;100.00
32873;BME280;19224;52.462;16.898;2023-03-11T12:44:56;98893.05;;;2.27;100.00
32873;BME280;19224;52.462;16.898;2023-03-11T12:47:27;98890.66;;;2.43;100.00
32873;BME280;19224;52.462;16.898;2023-03-11T12:52:53;98924.05;;;2.63;100.00
32873;BME280;19224;52.462;16.898;2023-03-11T12:55:31;98903.52;;;2.68;100.00
32873;BME280;19224;52.462;16.898;2023-03-11T12:58:18;98901.55;;;2.73;100.00
32873;BME280;19224;52.462;16.898;2023-03-11T13:00:48;98931.62;;;2.62;100.00
32873;BME280;19224;52.462;16.898;2023-03-11T13:03:33;98943.66;;;2.72;100.00
32873;BME280;19224;52.462;16.898;2023-03-11T13:06:23;98927.25;;;2.48;100.00
32873;BME280;19224;52.462;16.898;2023-03-11T13:08:57;98927.45;;;2.42;100.00
32873;BME280;19224;52.462;16.898;2023-03-11T13:11:35;98951.06;;;2.38;100.00
32873;BME280;19224;52.462;16.898;2023-03-11T13:16:48;98935.38;;;2.44;100.00
32873;BME280;19224;52.462;16.898;2023-03-11T13:19:34;98938.70;;;2.37;100.00
32873;BME280;19224;52.462;16.898;2023-03-11T13:22:38;98967.62;;;2.33;100.00
32873;BME280;19224;52.462;16.898;2023-03-11T13:24:48;98968.73;;;2.39;100.00
32873;BME280;19224;52.462;16.898;2023-03-11T13:27:33;98959.53;;;2.49;100.00
32873;BME280;19224;52.462;16.898;2023-03-11T13:30:18;98958.73;;;2.47;100.00
32873;BME280;19224;52.462;16.898;2023-03-11T13:33:15;98965.36;;;2.47;100.00
32873;BME280;19224;52.462;16.898;2023-03-11T13:36:11;98968.64;;;2.55;100.00
32873;BME280;19224;52.462;16.898;2023-03-11T13:41:44;98974.72;;;2.83;100.00
32873;BME280;19224;52.462;16.898;2023-03-11T13:44:45;98986.88;;;2.90;100.00
32873;BME280;19224;52.462;16.898;2023-03-11T13:47:22;99002.92;;;3.00;100.00
32873;BME280;19224;52.462;16.898;2023-03-11T13:50:08;99012.49;;;2.80;100.00
32873;BME280;19224;52.462;16.898;2023-03-11T13:52:47;99008.16;;;2.64;100.00
32873;BME280;19224;52.462;16.898;2023-03-11T13:55:44;99016.13;;;2.64;100.00
32873;BME280;19224;52.462;16.898;2023-03-11T13:58:23;99012.10;;;2.66;100.00
32873;BME280;19224;52.462;16.898;2023-03-11T14:01:00;99018.03;;;2.74;100.00
32873;BME280;19224;52.462;16.898;2023-03-11T14:03:35;99040.30;;;2.70;100.00
32873;BME280;19224;52.462;16.898;2023-03-11T14:06:15;99024.10;;;2.90;100.00
32873;BME280;19224;52.462;16.898;2023-03-11T14:08:56;99041.63;;;3.20;100.00
32873;BME280;19224;52.462;16.898;2023-03-11T14:11:31;99041.81;;;3.27;100.00
32873;BME280;19224;52.462;16.898;2023-03-11T14:14:17;99050.92;;;3.33;99.84
32873;BME280;19224;52.462;16.898;2023-03-11T14:16:44;99053.70;;;3.17;98.57
32873;BME280;19224;52.462;16.898;2023-03-11T14:19:20;99085.97;;;3.44;95.81
32873;BME280;19224;52.462;16.898;2023-03-11T14:21:52;99087.62;;;3.48;92.49
32873;BME280;19224;52.462;16.898;2023-03-11T14:24:34;99073.62;;;3.66;93.19
32873;BME280;19224;52.462;16.898;2023-03-11T14:27:12;99063.67;;;3.83;94.12
32873;BME280;19224;52.462;16.898;2023-03-11T14:29:44;99088.38;;;3.63;91.63